sensor_id;sensor_type;location;lat;lon;timestamp;P1;durP1;ratioP1;P2;durP2;ratioP2
49450;SDS011;35336;48.400;10.886;2023-12-29T00:00:14;3.90;;;2.42;;
49450;SDS011;35336;48.400;10.886;2023-12-29T00:00:29;2.67;;;2.42;;
49450;SDS011;35336;48.400;10.886;2023-12-29T00:00:44;3.57;;;2.33;;
49450;SDS011;35336;48.400;10.886;2023-12-29T00:01:00;4.20;;;2.40;;
49450;SDS011;35336;48.400;10.886;2023-12-29T00:01:16;3.37;;;2.47;;
49450;SDS011;35336;48.400;10.886;2023-12-29T00:01:32;3.17;;;2.65;;
49450;SDS011;35336;48.400;10.886;2023-12-29T00:01:47;3.20;;;2.67;;
49450;SDS011;35336;48.400;10.886;2023-12-29T00:02:02;3.13;;;2.50;;
49450;SDS011;35336;48.400;10.886;2023-12-29T00:02:18;3.77;;;2.70;;
49450;SDS011;35336;48.400;10.886;2023-12-29T00:02:33;3.97;;;2.60;;
49450;SDS011;35336;48.400;10.886;2023-12-29T00:02:48;3.87;;;2.77;;
49450;SDS011;35336;48.400;10.886;2023-12-29T00:03:03;3.80;;;2.85;;
49450;SDS011;35336;48.400;10.886;2023-12-29T00:03:19;3.60;;;2.70;;
49450;SDS011;35336;48.400;10.886;2023-12-29T00:03:35;4.13;;;2.60;;
49450;SDS011;35336;48.400;10.886;2023-12-29T00:03:50;4.35;;;2.55;;
49450;SDS011;35336;48.400;10.886;2023-12-29T00:04:05;4.30;;;2.73;;
49450;SDS011;35336;48.400;10.886;2023-12-29T00:04:21;4.15;;;2.83;;
49450;SDS011;35336;48.400;10.886;2023-12-29T00:04:36;3.63;;;2.63;;
49450;SDS011;35336;48.400;10.886;2023-12-29T00:04:51;3.93;;;2.63;;
49450;SDS011;35336;48.400;10.886;2023-12-29T00:05:07;4.33;;;2.60;;
49450;SDS011;35336;48.400;10.886;2023-12-29T00:05:24;3.63;;;2.50;;
49450;SDS011;35336;48.400;10.886;2023-12-29T00:05:39;3.90;;;2.50;;
49450;SDS011;35336;48.400;10.886;2023-12-29T00:05:57;5.30;;;2.67;;
49450;SDS011;35336;48.400;10.886;2023-12-29T00:06:12;4.50;;;2.75;;
49450;SDS011;35336;48.400;10.886;2023-12-29T00:06:28;4.07;;;2.50;;
49450;SDS011;35336;48.400;10.886;2023-12-29T00:06:43;4.33;;;2.53;;
49450;SDS011;35336;48.400;10.886;2023-12-29T00:06:58;3.87;;;2.70;;
49450;SDS011;35336;48.400;10.886;2023-12-29T00:07:13;3.72;;;2.50;;
49450;SDS011;35336;48.400;10.886;2023-12-29T00:07:30;4.88;;;2.42;;
49450;SDS011;35336;48.400;10.886;2023-12-29T00:07:48;4.25;;;2.50;;
49450;SDS011;35336;48.400;10.886;2023-12-29T00:08:03;3.30;;;2.50;;
49450;SDS011;35336;48.400;10.886;2023-12-29T00:08:19;2.80;;;2.50;;
49450;SDS011;35336;48.400;10.886;2023-12-29T00:08:35;2.60;;;2.30;;
49450;SDS011;35336;48.400;10.886;2023-12-29T00:08:51;3.08;;;2.40;;
49450;SDS011;35336;48.400;10.886;2023-12-29T00:09:07;3.27;;;2.50;;
49450;SDS011;35336;48.400;10.886;2023-12-29T00:09:24;4.43;;;2.70;;
49450;SDS011;35336;48.400;10.886;2023-12-29T00:09:39;4.43;;;2.65;;
49450;SDS011;35336;48.400;10.886;2023-12-29T00:09:55;5.40;;;2.60;;
49450;SDS011;35336;48.400;10.886;2023-12-29T00:10:13;5.55;;;2.85;;
49450;SDS011;35336;48.400;10.886;2023-12-29T00:10:28;3.92;;;2.88;;
49450;SDS011;35336;48.400;10.886;2023-12-29T00:10:44;3.67;;;2.90;;
49450;SDS011;35336;48.400;10.886;2023-12-29T00:10:59;4.27;;;2.67;;
49450;SDS011;35336;48.400;10.886;2023-12-29T00:11:23;4.10;;;2.50;;
49450;SDS011;35336;48.400;10.886;2023-12-29T00:11:38;4.28;;;2.70;;
49450;SDS011;35336;48.400;10.886;2023-12-29T00:11:55;4.18;;;2.88;;
49450;SDS011;35336;48.400;10.886;2023-12-29T00:12:11;3.77;;;2.90;;
49450;SDS011;35336;48.400;10.886;2023-12-29T00:12:26;3.63;;;2.70;;
49450;SDS011;35336;48.400;10.886;2023-12-29T00:12:41;3.30;;;2.50;;
49450;SDS011;35336;48.400;10.886;2023-12-29T00:12:56;3.10;;;2.45;;
49450;SDS011;35336;48.400;10.886;2023-12-29T00:13:12;3.00;;;2.50;;
49450;SDS011;35336;48.400;10.886;2023-12-29T00:13:29;3.20;;;2.50;;
49450;SDS011;35336;48.400;10.886;2023-12-29T00:13:44;4.70;;;2.75;;
49450;SDS011;35336;48.400;10.886;2023-12-29T00:14:02;5.32;;;3.00;;
49450;SDS011;35336;48.400;10.886;2023-12-29T00:14:17;3.97;;;2.90;;
49450;SDS011;35336;48.400;10.886;2023-12-29T00:14:33;4.45;;;2.83;;
49450;SDS011;35336;48.400;10.886;2023-12-29T00:14:51;4.28;;;2.83;;
49450;SDS011;35336;48.400;10.886;2023-12-29T00:15:06;4.43;;;3.03;;
49450;SDS011;35336;48.400;10.886;2023-12-29T00:15:24;3.78;;;2.88;;
49450;SDS011;35336;48.400;10.886;2023-12-29T00:15:40;3.40;;;2.63;;
49450;SDS011;35336;48.400;10.886;2023-12-29T00:15:55;3.25;;;2.60;;
49450;SDS011;35336;48.400;10.886;2023-12-29T00:16:10;3.40;;;2.60;;
49450;SDS011;35336;48.400;10.886;2023-12-29T00:16:28;3.37;;;2.40;;
49450;SDS011;35336;48.400;10.886;2023-12-29T00:16:46;3.10;;;2.40;;
49450;SDS011;35336;48.400;10.886;2023-12-29T00:17:02;3.40;;;2.63;;
49450;SDS011;35336;48.400;10.886;2023-12-29T00:17:17;4.47;;;2.90;;
49450;SDS011;35336;48.400;10.886;2023-12-29T00:17:33;3.97;;;2.63;;
49450;SDS011;35336;48.400;10.886;2023-12-29T00:17:48;3.73;;;2.60;;
49450;SDS011;35336;48.400;10.886;2023-12-29T00:18:03;4.20;;;2.70;;
49450;SDS011;35336;48.400;10.886;2023-12-29T00:18:19;3.60;;;2.63;;
49450;SDS011;35336;48.400;10.886;2023-12-29T00:18:36;3.53;;;2.60;;
49450;SDS011;35336;48.400;10.886;2023-12-29T00:18:52;3.85;;;2.60;;
49450;SDS011;35336;48.400;10.886;2023-12-29T00:19:07;4.20;;;2.40;;
49450;SDS011;35336;48.400;10.886;2023-12-29T00:19:22;4.70;;;2.50;;
49450;SDS011;35336;48.400;10.886;2023-12-29T00:19:38;4.10;;;2.63;;
49450;SDS011;35336;48.400;10.886;2023-12-29T00:19:53;3.42;;;2.60;;
49450;SDS011;35336;48.400;10.886;2023-12-29T00:20:08;3.57;;;2.60;;
49450;SDS011;35336;48.400;10.886;2023-12-29T00:20:24;4.18;;;2.70;;
49450;SDS011;35336;48.400;10.886;2023-12-29T00:20:39;4.90;;;2.93;;
49450;SDS011;35336;48.400;10.886;2023-12-29T00:20:54;4.80;;;2.90;;
49450;SDS011;35336;48.400;10.886;2023-12-29T00:21:10;4.17;;;2.80;;
49450;SDS011;35336;48.400;10.886;2023-12-29T00:21:25;4.32;;;2.88;;
49450;SDS011;35336;48.400;10.886;2023-12-29T00:21:40;3.87;;;2.73;;
49450;SDS011;35336;48.400;10.886;2023-12-29T00:21:56;3.77;;;2.70;;
49450;SDS011;35336;48.400;10.886;2023-12-29T00:22:11;3.67;;;2.73;;
49450;SDS011;35336;48.400;10.886;2023-12-29T00:22:26;3.53;;;2.60;;
49450;SDS011;35336;48.400;10.886;2023-12-29T00:22:41;4.35;;;2.53;;
49450;SDS011;35336;48.400;10.886;2023-12-29T00:22:57;4.20;;;2.60;;
49450;SDS011;35336;48.400;10.886;2023-12-29T00:23:12;3.50;;;2.70;;
49450;SDS011;35336;48.400;10.886;2023-12-29T00:23:27;3.33;;;2.60;;
49450;SDS011;35336;48.400;10.886;2023-12-29T00:23:45;4.43;;;2.67;;
49450;SDS011;35336;48.400;10.886;2023-12-29T00:24:00;4.78;;;2.75;;
49450;SDS011;35336;48.400;10.886;2023-12-29T00:24:15;4.13;;;2.90;;
49450;SDS011;35336;48.400;10.886;2023-12-29T00:24:31;4.40;;;3.28;;
49450;SDS011;35336;48.400;10.886;2023-12-29T00:24:46;4.07;;;3.10;;
49450;SDS011;35336;48.400;10.886;2023-12-29T00:25:01;3.47;;;2.83;;
49450;SDS011;35336;48.400;10.886;2023-12-29T00:25:17;4.40;;;3.10;;
49450;SDS011;35336;48.400;10.886;2023-12-29T00:25:32;5.43;;;3.10;;
49450;SDS011;35336;48.400;10.886;2023-12-29T00:25:50;5.15;;;3.00;;
49450;SDS011;35336;48.400;10.886;2023-12-29T00:26:07;4.73;;;3.10;;
49450;SDS011;35336;48.400;10.886;2023-12-29T00:26:30;4.15;;;2.80;;
49450;SDS011;35336;48.400;10.886;2023-12-29T00:26:45;4.43;;;2.97;;
49450;SDS011;35336;48.400;10.886;2023-12-29T00:27:03;3.78;;;2.97;;
49450;SDS011;35336;48.400;10.886;2023-12-29T00:27:18;4.22;;;2.78;;
49450;SDS011;35336;48.400;10.886;2023-12-29T00:27:36;4.95;;;2.95;;
49450;SDS011;35336;48.400;10.886;2023-12-29T00:27:51;3.80;;;2.80;;
49450;SDS011;35336;48.400;10.886;2023-12-29T00:28:06;3.53;;;2.70;;
49450;SDS011;35336;48.400;10.886;2023-12-29T00:28:22;3.70;;;2.80;;
49450;SDS011;35336;48.400;10.886;2023-12-29T00:28:37;3.50;;;2.60;;
49450;SDS011;35336;48.400;10.886;2023-12-29T00:28:53;3.85;;;2.55;;
49450;SDS011;35336;48.400;10.886;2023-12-29T00:29:09;3.67;;;2.67;;
49450;SDS011;35336;48.400;10.886;2023-12-29T00:29:24;3.60;;;2.63;;
49450;SDS011;35336;48.400;10.886;2023-12-29T00:29:39;3.53;;;2.60;;
49450;SDS011;35336;48.400;10.886;2023-12-29T00:29:55;3.75;;;2.80;;
49450;SDS011;35336;48.400;10.886;2023-12-29T00:30:10;4.20;;;3.00;;
49450;SDS011;35336;48.400;10.886;2023-12-29T00:30:26;3.83;;;2.80;;
49450;SDS011;35336;48.400;10.886;2023-12-29T00:30:41;3.08;;;2.58;;
49450;SDS011;35336;48.400;10.886;2023-12-29T00:30:56;3.97;;;2.60;;
49450;SDS011;35336;48.400;10.886;2023-12-29T00:31:14;5.83;;;2.67;;
49450;SDS011;35336;48.400;10.886;2023-12-29T00:31:30;4.70;;;2.95;;
49450;SDS011;35336;48.400;10.886;2023-12-29T00:31:45;3.30;;;2.80;;
49450;SDS011;35336;48.400;10.886;2023-12-29T00:32:01;3.30;;;2.80;;
49450;SDS011;35336;48.400;10.886;2023-12-29T00:32:16;3.60;;;2.97;;
49450;SDS011;35336;48.400;10.886;2023-12-29T00:32:31;3.60;;;2.90;;
49450;SDS011;35336;48.400;10.886;2023-12-29T00:32:47;3.30;;;2.67;;
49450;SDS011;35336;48.400;10.886;2023-12-29T00:33:02;3.53;;;2.60;;
49450;SDS011;35336;48.400;10.886;2023-12-29T00:33:17;4.78;;;3.03;;
49450;SDS011;35336;48.400;10.886;2023-12-29T00:33:33;4.93;;;3.23;;
49450;SDS011;35336;48.400;10.886;2023-12-29T00:33:48;4.00;;;3.03;;
49450;SDS011;35336;48.400;10.886;2023-12-29T00:34:03;3.60;;;2.80;;
49450;SDS011;35336;48.400;10.886;2023-12-29T00:34:18;4.45;;;2.80;;
49450;SDS011;35336;48.400;10.886;2023-12-29T00:34:34;4.33;;;2.70;;
49450;SDS011;35336;48.400;10.886;2023-12-29T00:34:49;3.50;;;2.50;;
49450;SDS011;35336;48.400;10.886;2023-12-29T00:35:04;3.20;;;2.40;;
49450;SDS011;35336;48.400;10.886;2023-12-29T00:35:20;2.75;;;2.40;;
49450;SDS011;35336;48.400;10.886;2023-12-29T00:35:36;3.17;;;2.57;;
49450;SDS011;35336;48.400;10.886;2023-12-29T00:35:52;3.45;;;2.67;;
49450;SDS011;35336;48.400;10.886;2023-12-29T00:36:07;3.27;;;2.60;;
49450;SDS011;35336;48.400;10.886;2023-12-29T00:36:23;3.37;;;2.50;;
49450;SDS011;35336;48.400;10.886;2023-12-29T00:36:39;3.88;;;2.50;;
49450;SDS011;35336;48.400;10.886;2023-12-29T00:36:54;3.60;;;2.58;;
49450;SDS011;35336;48.400;10.886;2023-12-29T00:37:09;3.80;;;2.60;;
49450;SDS011;35336;48.400;10.886;2023-12-29T00:37:27;3.63;;;2.40;;
49450;SDS011;35336;48.400;10.886;2023-12-29T00:37:42;2.90;;;2.47;;
49450;SDS011;35336;48.400;10.886;2023-12-29T00:38:02;3.63;;;2.80;;
49450;SDS011;35336;48.400;10.886;2023-12-29T00:38:18;3.60;;;2.78;;
49450;SDS011;35336;48.400;10.886;2023-12-29T00:38:33;3.37;;;2.57;;
49450;SDS011;35336;48.400;10.886;2023-12-29T00:38:49;4.00;;;2.60;;
49450;SDS011;35336;48.400;10.886;2023-12-29T00:39:04;3.77;;;2.60;;
49450;SDS011;35336;48.400;10.886;2023-12-29T00:39:19;3.60;;;2.80;;
49450;SDS011;35336;48.400;10.886;2023-12-29T00:39:34;3.63;;;2.90;;
49450;SDS011;35336;48.400;10.886;2023-12-29T00:39:52;3.92;;;2.72;;
49450;SDS011;35336;48.400;10.886;2023-12-29T00:40:07;3.72;;;2.60;;
49450;SDS011;35336;48.400;10.886;2023-12-29T00:40:23;3.13;;;2.58;;
49450;SDS011;35336;48.400;10.886;2023-12-29T00:40:38;3.27;;;2.60;;
49450;SDS011;35336;48.400;10.886;2023-12-29T00:40:56;3.30;;;2.57;;
49450;SDS011;35336;48.400;10.886;2023-12-29T00:41:11;2.67;;;2.35;;
49450;SDS011;35336;48.400;10.886;2023-12-29T00:41:27;2.47;;;2.20;;
49450;SDS011;35336;48.400;10.886;2023-12-29T00:41:42;2.77;;;2.20;;
49450;SDS011;35336;48.400;10.886;2023-12-29T00:41:57;3.20;;;2.22;;
49450;SDS011;35336;48.400;10.886;2023-12-29T00:42:12;3.00;;;2.30;;
49450;SDS011;35336;48.400;10.886;2023-12-29T00:42:28;2.83;;;2.50;;
49450;SDS011;35336;48.400;10.886;2023-12-29T00:42:45;2.80;;;2.50;;
49450;SDS011;35336;48.400;10.886;2023-12-29T00:43:01;2.78;;;2.47;;
49450;SDS011;35336;48.400;10.886;2023-12-29T00:43:16;3.47;;;2.70;;
49450;SDS011;35336;48.400;10.886;2023-12-29T00:43:34;3.88;;;2.75;;
49450;SDS011;35336;48.400;10.886;2023-12-29T00:43:49;4.00;;;2.70;;
49450;SDS011;35336;48.400;10.886;2023-12-29T00:44:04;3.90;;;2.50;;
49450;SDS011;35336;48.400;10.886;2023-12-29T00:44:22;3.53;;;2.55;;
49450;SDS011;35336;48.400;10.886;2023-12-29T00:44:40;3.47;;;2.58;;
49450;SDS011;35336;48.400;10.886;2023-12-29T00:44:58;3.13;;;2.70;;
49450;SDS011;35336;48.400;10.886;2023-12-29T00:45:13;4.00;;;2.85;;
49450;SDS011;35336;48.400;10.886;2023-12-29T00:45:28;3.43;;;2.50;;
49450;SDS011;35336;48.400;10.886;2023-12-29T00:45:43;3.20;;;2.50;;
49450;SDS011;35336;48.400;10.886;2023-12-29T00:46:01;3.53;;;2.57;;
49450;SDS011;35336;48.400;10.886;2023-12-29T00:46:19;4.28;;;2.67;;
49450;SDS011;35336;48.400;10.886;2023-12-29T00:46:35;4.55;;;2.90;;
49450;SDS011;35336;48.400;10.886;2023-12-29T00:46:50;3.72;;;2.80;;
49450;SDS011;35336;48.400;10.886;2023-12-29T00:47:08;3.65;;;2.70;;
49450;SDS011;35336;48.400;10.886;2023-12-29T00:47:23;3.50;;;2.67;;
49450;SDS011;35336;48.400;10.886;2023-12-29T00:47:38;3.20;;;2.70;;
49450;SDS011;35336;48.400;10.886;2023-12-29T00:47:53;3.25;;;2.67;;
49450;SDS011;35336;48.400;10.886;2023-12-29T00:48:09;3.93;;;2.70;;
49450;SDS011;35336;48.400;10.886;2023-12-29T00:48:26;4.10;;;2.72;;
49450;SDS011;35336;48.400;10.886;2023-12-29T00:48:44;3.38;;;2.50;;
49450;SDS011;35336;48.400;10.886;2023-12-29T00:49:01;3.10;;;2.58;;
49450;SDS011;35336;48.400;10.886;2023-12-29T00:49:17;3.20;;;2.63;;
49450;SDS011;35336;48.400;10.886;2023-12-29T00:49:32;3.20;;;2.57;;
49450;SDS011;35336;48.400;10.886;2023-12-29T00:49:47;4.33;;;2.70;;
49450;SDS011;35336;48.400;10.886;2023-12-29T00:50:03;4.40;;;2.77;;
49450;SDS011;35336;48.400;10.886;2023-12-29T00:50:18;3.72;;;2.70;;
49450;SDS011;35336;48.400;10.886;2023-12-29T00:50:33;3.63;;;2.80;;
49450;SDS011;35336;48.400;10.886;2023-12-29T00:50:49;2.97;;;2.53;;
49450;SDS011;35336;48.400;10.886;2023-12-29T00:51:04;2.80;;;2.33;;
49450;SDS011;35336;48.400;10.886;2023-12-29T00:51:22;3.77;;;2.70;;
49450;SDS011;35336;48.400;10.886;2023-12-29T00:51:43;3.85;;;2.72;;
49450;SDS011;35336;48.400;10.886;2023-12-29T00:51:58;3.97;;;2.65;;
49450;SDS011;35336;48.400;10.886;2023-12-29T00:52:14;3.00;;;2.70;;
49450;SDS011;35336;48.400;10.886;2023-12-29T00:52:29;3.17;;;2.80;;
49450;SDS011;35336;48.400;10.886;2023-12-29T00:52:44;3.03;;;2.70;;
49450;SDS011;35336;48.400;10.886;2023-12-29T00:52:59;3.05;;;2.58;;
49450;SDS011;35336;48.400;10.886;2023-12-29T00:53:15;2.93;;;2.40;;
49450;SDS011;35336;48.400;10.886;2023-12-29T00:53:34;3.17;;;2.40;;
49450;SDS011;35336;48.400;10.886;2023-12-29T00:53:52;3.40;;;2.42;;
49450;SDS011;35336;48.400;10.886;2023-12-29T00:54:09;4.20;;;2.83;;
49450;SDS011;35336;48.400;10.886;2023-12-29T00:54:24;3.87;;;2.80;;
49450;SDS011;35336;48.400;10.886;2023-12-29T00:54:40;3.80;;;2.78;;
49450;SDS011;35336;48.400;10.886;2023-12-29T00:54:55;3.40;;;2.80;;
49450;SDS011;35336;48.400;10.886;2023-12-29T00:55:10;2.83;;;2.53;;
49450;SDS011;35336;48.400;10.886;2023-12-29T00:55:26;2.88;;;2.40;;
49450;SDS011;35336;48.400;10.886;2023-12-29T00:55:41;3.67;;;2.57;;
49450;SDS011;35336;48.400;10.886;2023-12-29T00:55:56;3.43;;;2.77;;
49450;SDS011;35336;48.400;10.886;2023-12-29T00:56:12;3.53;;;2.90;;
49450;SDS011;35336;48.400;10.886;2023-12-29T00:56:27;3.53;;;2.72;;
49450;SDS011;35336;48.400;10.886;2023-12-29T00:56:47;3.17;;;2.60;;
49450;SDS011;35336;48.400;10.886;2023-12-29T00:57:03;3.13;;;2.72;;
49450;SDS011;35336;48.400;10.886;2023-12-29T00:57:19;4.00;;;2.80;;
49450;SDS011;35336;48.400;10.886;2023-12-29T00:57:34;4.43;;;2.90;;
49450;SDS011;35336;48.400;10.886;2023-12-29T00:57:49;3.63;;;2.80;;
49450;SDS011;35336;48.400;10.886;2023-12-29T00:58:05;3.50;;;2.70;;
49450;SDS011;35336;48.400;10.886;2023-12-29T00:58:20;3.47;;;2.80;;
49450;SDS011;35336;48.400;10.886;2023-12-29T00:58:35;4.20;;;2.87;;
49450;SDS011;35336;48.400;10.886;2023-12-29T00:58:50;4.30;;;3.00;;
49450;SDS011;35336;48.400;10.886;2023-12-29T00:59:06;4.13;;;2.83;;
49450;SDS011;35336;48.400;10.886;2023-12-29T00:59:23;4.13;;;2.73;;
49450;SDS011;35336;48.400;10.886;2023-12-29T00:59:41;3.55;;;2.80;;
49450;SDS011;35336;48.400;10.886;2023-12-29T00:59:56;3.17;;;2.70;;
49450;SDS011;35336;48.400;10.886;2023-12-29T01:00:12;3.10;;;2.70;;
49450;SDS011;35336;48.400;10.886;2023-12-29T01:00:27;3.60;;;2.95;;
49450;SDS011;35336;48.400;10.886;2023-12-29T01:00:43;3.77;;;3.00;;
49450;SDS011;35336;48.400;10.886;2023-12-29T01:01:03;3.80;;;2.90;;
49450;SDS011;35336;48.400;10.886;2023-12-29T01:01:21;4.60;;;3.17;;
49450;SDS011;35336;48.400;10.886;2023-12-29T01:01:40;4.38;;;3.33;;
49450;SDS011;35336;48.400;10.886;2023-12-29T01:01:55;3.80;;;3.20;;
49450;SDS011;35336;48.400;10.886;2023-12-29T01:02:10;3.88;;;3.13;;
49450;SDS011;35336;48.400;10.886;2023-12-29T01:02:25;3.97;;;3.27;;
49450;SDS011;35336;48.400;10.886;2023-12-29T01:02:41;3.73;;;3.07;;
49450;SDS011;35336;48.400;10.886;2023-12-29T01:02:56;3.67;;;2.70;;
49450;SDS011;35336;48.400;10.886;2023-12-29T01:03:11;3.50;;;2.80;;
49450;SDS011;35336;48.400;10.886;2023-12-29T01:03:26;3.00;;;2.70;;
49450;SDS011;35336;48.400;10.886;2023-12-29T01:03:42;3.40;;;2.70;;
49450;SDS011;35336;48.400;10.886;2023-12-29T01:03:57;3.87;;;2.70;;
49450;SDS011;35336;48.400;10.886;2023-12-29T01:04:12;3.27;;;2.77;;
49450;SDS011;35336;48.400;10.886;2023-12-29T01:04:27;3.10;;;2.80;;
49450;SDS011;35336;48.400;10.886;2023-12-29T01:04:45;4.15;;;2.78;;
49450;SDS011;35336;48.400;10.886;2023-12-29T01:05:00;4.82;;;2.83;;
49450;SDS011;35336;48.400;10.886;2023-12-29T01:05:16;3.13;;;2.73;;
49450;SDS011;35336;48.400;10.886;2023-12-29T01:05:34;3.10;;;2.80;;
49450;SDS011;35336;48.400;10.886;2023-12-29T01:05:49;3.72;;;2.88;;
49450;SDS011;35336;48.400;10.886;2023-12-29T01:06:04;4.53;;;3.10;;
49450;SDS011;35336;48.400;10.886;2023-12-29T01:06:20;4.33;;;3.30;;
49450;SDS011;35336;48.400;10.886;2023-12-29T01:06:35;3.95;;;3.30;;
49450;SDS011;35336;48.400;10.886;2023-12-29T01:06:50;4.40;;;3.30;;
49450;SDS011;35336;48.400;10.886;2023-12-29T01:07:06;5.57;;;3.43;;
49450;SDS011;35336;48.400;10.886;2023-12-29T01:07:21;5.63;;;3.57;;
49450;SDS011;35336;48.400;10.886;2023-12-29T01:07:36;4.43;;;3.35;;
49450;SDS011;35336;48.400;10.886;2023-12-29T01:07:51;4.47;;;3.27;;
49450;SDS011;35336;48.400;10.886;2023-12-29T01:08:07;4.97;;;3.20;;
49450;SDS011;35336;48.400;10.886;2023-12-29T01:08:22;4.50;;;3.10;;
49450;SDS011;35336;48.400;10.886;2023-12-29T01:08:37;4.13;;;3.30;;
49450;SDS011;35336;48.400;10.886;2023-12-29T01:08:52;5.13;;;3.45;;
49450;SDS011;35336;48.400;10.886;2023-12-29T01:09:08;4.83;;;3.30;;
49450;SDS011;35336;48.400;10.886;2023-12-29T01:09:26;4.75;;;3.45;;
49450;SDS011;35336;48.400;10.886;2023-12-29T01:09:41;5.38;;;3.50;;
49450;SDS011;35336;48.400;10.886;2023-12-29T01:09:56;4.43;;;3.23;;
49450;SDS011;35336;48.400;10.886;2023-12-29T01:10:12;4.82;;;3.20;;
49450;SDS011;35336;48.400;10.886;2023-12-29T01:10:27;5.27;;;3.30;;
49450;SDS011;35336;48.400;10.886;2023-12-29T01:10:42;5.27;;;3.40;;
49450;SDS011;35336;48.400;10.886;2023-12-29T01:11:00;5.37;;;3.50;;
49450;SDS011;35336;48.400;10.886;2023-12-29T01:11:17;5.85;;;3.40;;
49450;SDS011;35336;48.400;10.886;2023-12-29T01:11:32;5.45;;;3.38;;
49450;SDS011;35336;48.400;10.886;2023-12-29T01:11:48;5.07;;;3.50;;
49450;SDS011;35336;48.400;10.886;2023-12-29T01:12:03;4.78;;;3.60;;
49450;SDS011;35336;48.400;10.886;2023-12-29T01:12:19;4.53;;;3.43;;
49450;SDS011;35336;48.400;10.886;2023-12-29T01:12:36;4.30;;;3.45;;
49450;SDS011;35336;48.400;10.886;2023-12-29T01:12:54;4.95;;;3.70;;
49450;SDS011;35336;48.400;10.886;2023-12-29T01:13:09;5.30;;;3.55;;
49450;SDS011;35336;48.400;10.886;2023-12-29T01:13:24;5.28;;;3.40;;
49450;SDS011;35336;48.400;10.886;2023-12-29T01:13:39;4.70;;;3.20;;
49450;SDS011;35336;48.400;10.886;2023-12-29T01:13:55;4.83;;;3.13;;
49450;SDS011;35336;48.400;10.886;2023-12-29T01:14:11;4.97;;;3.20;;
49450;SDS011;35336;48.400;10.886;2023-12-29T01:14:28;4.03;;;3.10;;
49450;SDS011;35336;48.400;10.886;2023-12-29T01:14:43;4.53;;;3.15;;
49450;SDS011;35336;48.400;10.886;2023-12-29T01:14:58;4.80;;;3.30;;
49450;SDS011;35336;48.400;10.886;2023-12-29T01:15:14;4.45;;;3.22;;
49450;SDS011;35336;48.400;10.886;2023-12-29T01:15:31;3.95;;;3.08;;
49450;SDS011;35336;48.400;10.886;2023-12-29T01:15:46;3.83;;;2.90;;
49450;SDS011;35336;48.400;10.886;2023-12-29T01:16:02;3.67;;;2.60;;
49450;SDS011;35336;48.400;10.886;2023-12-29T01:16:17;4.13;;;3.07;;
49450;SDS011;35336;48.400;10.886;2023-12-29T01:16:36;4.93;;;3.30;;
49450;SDS011;35336;48.400;10.886;2023-12-29T01:16:56;4.15;;;3.17;;
49450;SDS011;35336;48.400;10.886;2023-12-29T01:17:12;4.47;;;3.30;;
49450;SDS011;35336;48.400;10.886;2023-12-29T01:17:27;4.47;;;3.17;;
49450;SDS011;35336;48.400;10.886;2023-12-29T01:17:42;4.35;;;3.53;;
49450;SDS011;35336;48.400;10.886;2023-12-29T01:17:57;4.80;;;3.80;;
49450;SDS011;35336;48.400;10.886;2023-12-29T01:18:13;5.40;;;3.70;;
49450;SDS011;35336;48.400;10.886;2023-12-29T01:18:28;5.90;;;3.73;;
49450;SDS011;35336;48.400;10.886;2023-12-29T01:18:43;5.60;;;3.90;;
49450;SDS011;35336;48.400;10.886;2023-12-29T01:18:58;5.13;;;3.92;;
49450;SDS011;35336;48.400;10.886;2023-12-29T01:19:14;5.43;;;4.03;;
49450;SDS011;35336;48.400;10.886;2023-12-29T01:19:29;5.93;;;3.87;;
49450;SDS011;35336;48.400;10.886;2023-12-29T01:19:44;5.27;;;3.30;;
49450;SDS011;35336;48.400;10.886;2023-12-29T01:19:59;4.50;;;3.37;;
49450;SDS011;35336;48.400;10.886;2023-12-29T01:20:17;6.28;;;3.90;;
49450;SDS011;35336;48.400;10.886;2023-12-29T01:20:38;8.18;;;4.50;;
49450;SDS011;35336;48.400;10.886;2023-12-29T01:20:55;7.18;;;4.75;;
49450;SDS011;35336;48.400;10.886;2023-12-29T01:21:11;7.07;;;4.37;;
49450;SDS011;35336;48.400;10.886;2023-12-29T01:21:26;6.78;;;4.32;;
49450;SDS011;35336;48.400;10.886;2023-12-29T01:21:41;6.43;;;4.13;;
49450;SDS011;35336;48.400;10.886;2023-12-29T01:21:56;6.03;;;4.10;;
49450;SDS011;35336;48.400;10.886;2023-12-29T01:22:12;7.30;;;4.63;;
49450;SDS011;35336;48.400;10.886;2023-12-29T01:22:29;8.85;;;5.30;;
49450;SDS011;35336;48.400;10.886;2023-12-29T01:22:45;9.70;;;5.17;;
49450;SDS011;35336;48.400;10.886;2023-12-29T01:23:00;8.07;;;4.50;;
49450;SDS011;35336;48.400;10.886;2023-12-29T01:23:15;7.05;;;4.30;;
49450;SDS011;35336;48.400;10.886;2023-12-29T01:23:31;7.90;;;4.20;;
49450;SDS011;35336;48.400;10.886;2023-12-29T01:23:46;6.13;;;3.97;;
49450;SDS011;35336;48.400;10.886;2023-12-29T01:24:06;4.93;;;3.78;;
49450;SDS011;35336;48.400;10.886;2023-12-29T01:24:22;5.18;;;3.70;;
49450;SDS011;35336;48.400;10.886;2023-12-29T01:24:37;4.90;;;3.57;;
49450;SDS011;35336;48.400;10.886;2023-12-29T01:24:55;4.20;;;3.30;;
49450;SDS011;35336;48.400;10.886;2023-12-29T01:25:10;3.95;;;3.25;;
49450;SDS011;35336;48.400;10.886;2023-12-29T01:25:26;5.18;;;3.58;;
49450;SDS011;35336;48.400;10.886;2023-12-29T01:25:41;5.90;;;3.77;;
49450;SDS011;35336;48.400;10.886;2023-12-29T01:25:59;5.17;;;3.80;;
49450;SDS011;35336;48.400;10.886;2023-12-29T01:26:14;4.35;;;3.40;;
49450;SDS011;35336;48.400;10.886;2023-12-29T01:26:29;4.60;;;3.50;;
49450;SDS011;35336;48.400;10.886;2023-12-29T01:26:45;5.53;;;3.87;;
49450;SDS011;35336;48.400;10.886;2023-12-29T01:27:00;6.60;;;4.13;;
49450;SDS011;35336;48.400;10.886;2023-12-29T01:27:15;5.80;;;3.90;;
49450;SDS011;35336;48.400;10.886;2023-12-29T01:27:31;5.63;;;3.83;;
49450;SDS011;35336;48.400;10.886;2023-12-29T01:27:48;6.43;;;4.00;;
49450;SDS011;35336;48.400;10.886;2023-12-29T01:28:03;6.18;;;4.03;;
49450;SDS011;35336;48.400;10.886;2023-12-29T01:28:19;5.40;;;3.77;;
49450;SDS011;35336;48.400;10.886;2023-12-29T01:28:34;4.97;;;3.47;;
49450;SDS011;35336;48.400;10.886;2023-12-29T01:28:49;4.80;;;3.40;;
49450;SDS011;35336;48.400;10.886;2023-12-29T01:29:05;4.47;;;3.57;;
49450;SDS011;35336;48.400;10.886;2023-12-29T01:29:20;4.68;;;3.58;;
49450;SDS011;35336;48.400;10.886;2023-12-29T01:29:36;4.70;;;3.50;;
49450;SDS011;35336;48.400;10.886;2023-12-29T01:29:51;4.93;;;3.63;;
49450;SDS011;35336;48.400;10.886;2023-12-29T01:30:06;5.37;;;3.73;;
49450;SDS011;35336;48.400;10.886;2023-12-29T01:30:25;4.90;;;3.47;;
49450;SDS011;35336;48.400;10.886;2023-12-29T01:30:40;4.37;;;3.33;;
49450;SDS011;35336;48.400;10.886;2023-12-29T01:30:55;3.77;;;3.40;;
49450;SDS011;35336;48.400;10.886;2023-12-29T01:31:10;4.77;;;3.57;;
49450;SDS011;35336;48.400;10.886;2023-12-29T01:31:28;5.03;;;3.70;;
49450;SDS011;35336;48.400;10.886;2023-12-29T01:31:44;4.38;;;3.15;;
49450;SDS011;35336;48.400;10.886;2023-12-29T01:32:00;4.00;;;3.20;;
49450;SDS011;35336;48.400;10.886;2023-12-29T01:32:15;4.80;;;3.50;;
49450;SDS011;35336;48.400;10.886;2023-12-29T01:32:30;5.53;;;3.65;;
49450;SDS011;35336;48.400;10.886;2023-12-29T01:32:45;4.80;;;3.33;;
49450;SDS011;35336;48.400;10.886;2023-12-29T01:33:03;3.77;;;3.00;;
49450;SDS011;35336;48.400;10.886;2023-12-29T01:33:18;4.93;;;3.22;;
49450;SDS011;35336;48.400;10.886;2023-12-29T01:33:34;5.00;;;3.30;;
49450;SDS011;35336;48.400;10.886;2023-12-29T01:33:49;3.35;;;3.00;;
49450;SDS011;35336;48.400;10.886;2023-12-29T01:34:05;3.40;;;3.10;;
49450;SDS011;35336;48.400;10.886;2023-12-29T01:34:20;3.87;;;3.40;;